createdAt,value
2019-04-21T00:02:11.044Z,3.75
2019-04-21T00:07:36.190Z,3.82
2019-04-21T00:12:43.096Z,3.61
2019-04-21T00:17:35.221Z,3.46
2019-04-21T00:22:59.056Z,3.72
2019-04-21T00:28:17.043Z,3.82
2019-04-21T00:33:08.123Z,3.87
2019-04-21T00:38:34.280Z,4.03
2019-04-21T00:43:29.444Z,4.01
2019-04-21T00:48:47.676Z,4.10
2019-04-21T00:59:05.848Z,3.73
2019-04-21T01:04:16.793Z,4.00
2019-04-21T01:09:20.192Z,3.94
2019-04-21T01:14:37.298Z,4.11
2019-04-21T01:19:37.083Z,4.15
2019-04-21T01:24:32.467Z,3.98
2019-04-21T01:29:54.006Z,5.03
2019-04-21T01:35:02.661Z,4.34
2019-04-21T01:40:20.947Z,4.27
2019-04-21T01:45:21.868Z,4.40
2019-04-21T01:50:31.683Z,4.81
2019-04-21T01:55:41.873Z,4.78
2019-04-21T02:00:41.179Z,4.59
2019-04-21T02:06:02.966Z,4.36
2019-04-21T02:11:08.047Z,4.67
2019-04-21T02:16:12.555Z,4.59
2019-04-21T02:21:17.877Z,4.64
2019-04-21T02:26:36.173Z,4.52
2019-04-21T02:31:48.822Z,4.73
2019-04-21T02:36:53.426Z,5.53
2019-04-21T02:42:05.595Z,4.53
2019-04-21T02:47:03.627Z,4.88
2019-04-21T02:52:31.877Z,4.70
2019-04-21T02:57:35.190Z,5.08
2019-04-21T03:02:39.063Z,4.92
2019-04-21T03:18:00.335Z,5.20
2019-04-21T03:23:23.862Z,5.61
2019-04-21T03:28:27.851Z,5.30
2019-04-21T03:34:34.914Z,5.84
2019-04-21T03:38:37.465Z,5.94
2019-04-21T03:43:40.169Z,5.69
2019-04-21T03:49:02.363Z,5.56
2019-04-21T03:54:07.368Z,6.37
2019-04-21T04:09:41.493Z,5.76
2019-04-21T04:19:51.601Z,6.08
2019-04-21T04:24:49.894Z,6.82
2019-04-21T04:30:04.253Z,7.20
2019-04-21T04:35:03.397Z,6.24
2019-04-21T04:50:49.321Z,6.96
2019-04-21T04:55:51.043Z,7.04
2019-04-21T05:01:06.201Z,7.05
2019-04-21T05:06:17.186Z,6.74
2019-04-21T05:11:23.557Z,7.39
2019-04-21T05:16:36.318Z,7.17
2019-04-21T05:26:22.073Z,7.12
2019-04-21T05:36:40.776Z,7.90
2019-04-21T05:41:45.261Z,7.81
2019-04-21T05:47:14.231Z,7.83
2019-04-21T05:52:08.059Z,7.16
2019-04-21T05:57:20.567Z,8.15
2019-04-21T06:02:30.242Z,7.77
2019-04-21T06:07:41.496Z,8.53
2019-04-21T06:12:44.966Z,7.83
2019-04-21T06:18:02.673Z,8.09
2019-04-21T06:23:05.671Z,8.23
2019-04-21T06:33:27.623Z,8.05
2019-04-21T06:38:38.057Z,8.00
2019-04-21T06:48:52.425Z,8.72
2019-04-21T06:53:52.537Z,8.28
2019-04-21T07:04:18.810Z,7.76
2019-04-21T07:14:34.612Z,8.09
2019-04-21T07:19:41.031Z,8.63
2019-04-21T07:24:46.147Z,8.07
2019-04-21T07:29:55.645Z,8.11
2019-04-21T07:35:06.517Z,8.37
2019-04-21T07:40:05.416Z,8.25
2019-04-21T07:45:16.889Z,8.12
2019-04-21T07:50:33.110Z,8.54
2019-04-21T08:05:52.569Z,8.22
2019-04-21T08:11:06.905Z,8.33
2019-04-21T08:21:20.754Z,8.33
2019-04-21T08:26:31.217Z,8.24
2019-04-21T08:31:49.947Z,8.36
2019-04-21T08:36:46.489Z,8.29
2019-04-21T08:41:51.038Z,8.61
2019-04-21T08:46:59.178Z,8.61
2019-04-21T08:52:21.293Z,8.70
2019-04-21T08:57:24.560Z,8.54
2019-04-21T09:02:29.254Z,8.14
2019-04-21T09:07:42.999Z,8.41
2019-04-21T09:12:50.499Z,8.22
2019-04-21T09:17:45.759Z,8.86
2019-04-21T09:23:00.746Z,8.70
2019-04-21T09:28:07.014Z,8.66
2019-04-21T09:33:02.382Z,8.57
2019-04-21T09:38:19.355Z,8.30
2019-04-21T09:43:27.044Z,7.16
2019-04-21T09:48:28.109Z,9.39
2019-04-21T09:53:38.171Z,8.24
2019-04-21T09:58:49.474Z,8.37
2019-04-21T10:03:56.448Z,8.28
2019-04-21T10:09:04.188Z,9.11
2019-04-21T10:14:09.820Z,8.83
2019-04-21T10:19:18.772Z,8.74
2019-04-21T10:24:28.514Z,8.70
2019-04-21T10:29:41.231Z,9.08
2019-04-21T10:34:45.277Z,8.79
2019-04-21T10:39:53.824Z,8.57
2019-04-21T10:45:03.220Z,9.15
2019-04-21T10:50:10.959Z,8.65
2019-04-21T10:55:37.986Z,8.81
2019-04-21T11:00:28.120Z,9.19
2019-04-21T11:05:37.133Z,9.44
2019-04-21T11:10:36.140Z,9.11
2019-04-21T11:15:47.367Z,8.72
2019-04-21T11:20:55.206Z,8.53
2019-04-21T11:26:04.357Z,9.54
2019-04-21T11:31:13.096Z,8.34
2019-04-21T11:36:22.548Z,8.65
2019-04-21T11:41:23.983Z,8.26
2019-04-21T11:46:22.912Z,8.52
2019-04-21T11:51:33.168Z,8.28
2019-04-21T11:56:40.993Z,7.70
2019-04-21T12:01:49.795Z,7.19
2019-04-21T12:06:57.953Z,7.80
2019-04-21T12:12:07.466Z,7.36
2019-04-21T12:17:16.407Z,7.75
2019-04-21T12:22:29.885Z,7.26
2019-04-21T12:27:34.000Z,7.16
2019-04-21T12:32:44.215Z,6.79
2019-04-21T12:37:51.302Z,6.07
2019-04-21T12:43:00.936Z,7.51
2019-04-21T12:48:10.325Z,6.44
2019-04-21T12:53:17.965Z,7.36
2019-04-21T13:03:38.005Z,6.56
2019-04-21T13:08:43.595Z,7.22
2019-04-21T13:13:42.057Z,6.86
2019-04-21T13:18:49.533Z,6.33
2019-04-21T13:23:58.889Z,6.86
2019-04-21T13:29:08.049Z,6.28
2019-04-21T13:34:16.114Z,6.00
2019-04-21T13:39:50.667Z,6.06
2019-04-21T13:44:34.838Z,6.80
2019-04-21T13:49:43.378Z,6.53
2019-04-21T13:54:51.548Z,6.97
2019-04-21T13:59:59.364Z,5.72
2019-04-21T14:05:10.105Z,5.47
2019-04-21T14:10:17.960Z,5.39
2019-04-21T14:15:26.251Z,5.96
2019-04-21T14:20:35.169Z,6.11
2019-04-21T14:25:43.748Z,5.64
2019-04-21T14:30:52.562Z,6.09
2019-04-21T14:36:00.980Z,5.51
2019-04-21T14:41:08.403Z,6.14
2019-04-21T14:46:17.392Z,5.79
2019-04-21T14:51:27.045Z,6.21
2019-04-21T14:56:35.590Z,6.39
2019-04-21T15:01:44.160Z,6.37
2019-04-21T15:06:52.008Z,6.74
2019-04-21T15:12:02.353Z,5.79
2019-04-21T15:17:09.623Z,5.51
2019-04-21T15:22:18.656Z,6.19
2019-04-21T15:27:27.698Z,6.30
2019-04-21T15:32:36.807Z,5.98
2019-04-21T15:37:46.342Z,5.51
2019-04-21T15:42:54.679Z,6.23
2019-04-21T15:48:04.173Z,5.35
2019-04-21T15:53:11.918Z,5.68
2019-04-21T15:58:20.620Z,5.15
2019-04-21T16:03:28.980Z,4.87
2019-04-21T16:08:37.441Z,5.28
2019-04-21T16:13:45.847Z,5.10
2019-04-21T16:18:54.351Z,5.77
2019-04-21T16:24:04.501Z,4.88
2019-04-21T16:29:11.688Z,4.89
2019-04-21T16:34:21.927Z,4.94
2019-04-21T16:39:29.487Z,4.67
2019-04-21T16:44:38.864Z,4.28
2019-04-21T16:49:47.557Z,4.11
2019-04-21T16:54:56.038Z,4.22
2019-04-21T17:00:04.538Z,4.17
2019-04-21T17:05:12.425Z,4.23
2019-04-21T17:10:22.455Z,3.91
2019-04-21T17:15:48.828Z,3.89
2019-04-21T17:20:46.703Z,3.99
2019-04-21T17:25:47.382Z,3.91
2019-04-21T17:30:55.406Z,3.87
2019-04-21T17:36:04.989Z,3.74
2019-04-21T17:41:24.750Z,3.54
2019-04-21T17:46:27.873Z,3.65
2019-04-21T17:51:29.900Z,3.34
2019-04-21T18:07:08.524Z,3.00
2019-04-21T18:12:16.569Z,3.55
2019-04-21T18:17:14.050Z,2.98
2019-04-21T18:22:28.412Z,3.19
2019-04-21T18:27:29.881Z,3.31
2019-04-21T18:32:39.728Z,3.01
2019-04-21T18:37:49.839Z,3.22
2019-04-21T18:43:27.565Z,3.49
2019-04-21T18:48:16.996Z,3.33
2019-04-21T18:53:23.784Z,3.36
2019-04-21T18:58:22.254Z,3.53
2019-04-21T19:03:37.707Z,3.43
2019-04-21T19:09:01.206Z,3.78
2019-04-21T19:14:17.374Z,4.00
2019-04-21T19:19:36.588Z,3.80
2019-04-21T19:24:32.010Z,3.69
2019-04-21T19:29:28.871Z,3.68
2019-04-21T19:34:25.762Z,4.09
2019-04-21T19:39:42.743Z,4.06
2019-04-21T19:44:52.567Z,3.84
2019-04-21T19:50:03.218Z,3.74
2019-04-21T19:54:56.631Z,3.81
2019-04-21T20:00:04.219Z,3.56
2019-04-21T20:05:15.386Z,3.19
2019-04-21T20:10:33.287Z,3.65
2019-04-21T20:15:42.152Z,3.92
2019-04-21T20:20:37.280Z,3.93
2019-04-21T20:25:52.577Z,5.22
2019-04-21T20:31:14.803Z,5.71
2019-04-21T20:36:23.743Z,5.12
2019-04-21T20:41:27.311Z,5.06
2019-04-21T20:46:36.607Z,4.81
2019-04-21T20:51:41.754Z,4.29
2019-04-21T20:56:56.219Z,4.55
2019-04-21T21:02:02.371Z,4.72
2019-04-21T21:07:20.740Z,4.66
2019-04-21T21:17:44.213Z,4.80
2019-04-21T21:22:39.390Z,4.72
2019-04-21T21:27:42.208Z,5.10
2019-04-21T21:32:57.436Z,5.83
2019-04-21T21:38:08.359Z,5.83
2019-04-21T21:42:53.257Z,6.06
2019-04-21T21:48:20.791Z,6.05
2019-04-21T21:53:16.372Z,5.94
2019-04-21T21:58:26.202Z,5.43
2019-04-21T22:03:31.877Z,5.14
2019-04-21T22:08:36.508Z,5.07
2019-04-21T22:13:50.931Z,5.31
2019-04-21T22:19:06.911Z,5.35
2019-04-21T22:24:08.476Z,5.34
2019-04-21T22:29:09.695Z,5.41
2019-04-21T22:34:18.214Z,5.55
2019-04-21T22:39:42.121Z,4.61
2019-04-21T22:44:34.615Z,5.07
2019-04-21T22:49:44.383Z,5.32
2019-04-21T22:54:52.709Z,5.23
2019-04-21T23:00:05.106Z,5.09
2019-04-21T23:05:09.740Z,4.81
2019-04-21T23:10:19.082Z,5.17
2019-04-21T23:15:33.232Z,4.99
2019-04-21T23:20:53.542Z,6.20
2019-04-21T23:26:01.172Z,6.81
2019-04-21T23:31:12.509Z,5.98
2019-04-21T23:36:10.604Z,6.14
2019-04-21T23:41:11.067Z,6.51
2019-04-21T23:46:20.247Z,6.64
2019-04-21T23:51:37.710Z,5.35
2019-04-21T23:56:39.140Z,4.39
